sensor_id;sensor_type;location;lat;lon;timestamp;P1;durP1;ratioP1;P2;durP2;ratioP2
249;SDS011;109;19.806;-70.704;2023-04-25T00:01:26;5.40;;;2.20;;
249;SDS011;109;19.806;-70.704;2023-04-25T00:03:53;6.00;;;2.30;;
249;SDS011;109;19.806;-70.704;2023-04-25T00:06:19;7.10;;;2.30;;
249;SDS011;109;19.806;-70.704;2023-04-25T00:08:46;3.83;;;2.10;;
249;SDS011;109;19.806;-70.704;2023-04-25T00:11:12;10.13;;;2.20;;
249;SDS011;109;19.806;-70.704;2023-04-25T00:13:39;6.33;;;3.17;;
249;SDS011;109;19.806;-70.704;2023-04-25T00:16:07;14.00;;;2.80;;
249;SDS011;109;19.806;-70.704;2023-04-25T00:18:33;6.23;;;2.47;;
249;SDS011;109;19.806;-70.704;2023-04-25T00:21:00;12.43;;;2.50;;
249;SDS011;109;19.806;-70.704;2023-04-25T00:23:26;9.23;;;2.43;;
249;SDS011;109;19.806;-70.704;2023-04-25T00:25:53;12.37;;;2.77;;
249;SDS011;109;19.806;-70.704;2023-04-25T00:28:19;12.43;;;3.20;;
249;SDS011;109;19.806;-70.704;2023-04-25T00:30:46;9.23;;;2.20;;
249;SDS011;109;19.806;-70.704;2023-04-25T00:33:12;3.70;;;2.00;;
249;SDS011;109;19.806;-70.704;2023-04-25T00:35:39;5.93;;;2.43;;
249;SDS011;109;19.806;-70.704;2023-04-25T00:38:05;7.47;;;2.60;;
249;SDS011;109;19.806;-70.704;2023-04-25T00:40:32;10.50;;;2.73;;
249;SDS011;109;19.806;-70.704;2023-04-25T00:42:58;12.07;;;2.53;;
249;SDS011;109;19.806;-70.704;2023-04-25T00:45:29;8.10;;;2.73;;
249;SDS011;109;19.806;-70.704;2023-04-25T00:47:56;9.60;;;2.40;;
249;SDS011;109;19.806;-70.704;2023-04-25T00:50:23;15.07;;;3.00;;
249;SDS011;109;19.806;-70.704;2023-04-25T00:52:56;14.13;;;3.50;;
249;SDS011;109;19.806;-70.704;2023-04-25T00:55:23;14.27;;;2.70;;
249;SDS011;109;19.806;-70.704;2023-04-25T00:58:04;18.13;;;3.53;;
249;SDS011;109;19.806;-70.704;2023-04-25T01:00:45;11.83;;;2.30;;
249;SDS011;109;19.806;-70.704;2023-04-25T01:03:14;22.73;;;3.20;;
249;SDS011;109;19.806;-70.704;2023-04-25T01:05:52;11.00;;;3.03;;
249;SDS011;109;19.806;-70.704;2023-04-25T01:08:18;6.53;;;2.50;;
249;SDS011;109;19.806;-70.704;2023-04-25T01:10:56;8.57;;;2.40;;
249;SDS011;109;19.806;-70.704;2023-04-25T01:13:22;5.90;;;2.20;;
249;SDS011;109;19.806;-70.704;2023-04-25T01:15:56;7.60;;;2.23;;
249;SDS011;109;19.806;-70.704;2023-04-25T01:18:22;8.87;;;3.20;;
249;SDS011;109;19.806;-70.704;2023-04-25T01:20:56;5.20;;;2.30;;
249;SDS011;109;19.806;-70.704;2023-04-25T01:23:48;9.13;;;2.97;;
249;SDS011;109;19.806;-70.704;2023-04-25T01:26:14;8.20;;;3.73;;
249;SDS011;109;19.806;-70.704;2023-04-25T01:28:48;9.53;;;3.80;;
249;SDS011;109;19.806;-70.704;2023-04-25T01:31:15;12.60;;;4.90;;
249;SDS011;109;19.806;-70.704;2023-04-25T01:33:49;24.70;;;10.10;;
249;SDS011;109;19.806;-70.704;2023-04-25T01:36:15;23.90;;;11.70;;
249;SDS011;109;19.806;-70.704;2023-04-25T01:38:49;35.70;;;10.93;;
249;SDS011;109;19.806;-70.704;2023-04-25T01:41:23;33.77;;;11.83;;
249;SDS011;109;19.806;-70.704;2023-04-25T01:43:57;17.07;;;8.27;;
249;SDS011;109;19.806;-70.704;2023-04-25T01:46:23;11.00;;;7.20;;
249;SDS011;109;19.806;-70.704;2023-04-25T01:48:57;19.30;;;8.70;;
249;SDS011;109;19.806;-70.704;2023-04-25T01:51:23;20.27;;;7.50;;
249;SDS011;109;19.806;-70.704;2023-04-25T01:53:57;17.10;;;6.30;;
249;SDS011;109;19.806;-70.704;2023-04-25T01:56:24;17.43;;;6.00;;
249;SDS011;109;19.806;-70.704;2023-04-25T01:58:59;15.60;;;7.10;;
249;SDS011;109;19.806;-70.704;2023-04-25T02:01:59;9.00;;;6.20;;
249;SDS011;109;19.806;-70.704;2023-04-25T02:04:35;11.23;;;5.90;;
249;SDS011;109;19.806;-70.704;2023-04-25T02:07:03;13.83;;;6.20;;
249;SDS011;109;19.806;-70.704;2023-04-25T02:09:46;14.93;;;6.53;;
249;SDS011;109;19.806;-70.704;2023-04-25T02:12:21;13.13;;;5.80;;
249;SDS011;109;19.806;-70.704;2023-04-25T02:15:07;8.27;;;4.90;;
249;SDS011;109;19.806;-70.704;2023-04-25T02:17:47;7.97;;;4.77;;
249;SDS011;109;19.806;-70.704;2023-04-25T02:20:21;11.73;;;4.97;;
249;SDS011;109;19.806;-70.704;2023-04-25T02:22:48;10.70;;;4.60;;
249;SDS011;109;19.806;-70.704;2023-04-25T02:25:22;9.00;;;4.60;;
249;SDS011;109;19.806;-70.704;2023-04-25T02:27:48;13.40;;;5.90;;
249;SDS011;109;19.806;-70.704;2023-04-25T02:30:23;11.97;;;6.03;;
249;SDS011;109;19.806;-70.704;2023-04-25T02:32:49;18.43;;;5.90;;
249;SDS011;109;19.806;-70.704;2023-04-25T02:35:29;14.67;;;5.83;;
249;SDS011;109;19.806;-70.704;2023-04-25T02:38:02;10.50;;;5.50;;
249;SDS011;109;19.806;-70.704;2023-04-25T02:40:29;11.37;;;5.17;;
249;SDS011;109;19.806;-70.704;2023-04-25T02:43:02;8.10;;;5.20;;
249;SDS011;109;19.806;-70.704;2023-04-25T02:45:28;7.10;;;4.40;;
249;SDS011;109;19.806;-70.704;2023-04-25T02:48:01;8.07;;;4.50;;
249;SDS011;109;19.806;-70.704;2023-04-25T02:50:31;9.17;;;4.60;;
249;SDS011;109;19.806;-70.704;2023-04-25T02:53:04;10.43;;;4.40;;
249;SDS011;109;19.806;-70.704;2023-04-25T02:55:36;12.50;;;4.00;;
249;SDS011;109;19.806;-70.704;2023-04-25T02:58:10;7.03;;;4.03;;
249;SDS011;109;19.806;-70.704;2023-04-25T03:00:58;7.03;;;4.03;;
249;SDS011;109;19.806;-70.704;2023-04-25T03:03:31;9.90;;;3.80;;
249;SDS011;109;19.806;-70.704;2023-04-25T03:05:58;12.33;;;4.20;;
249;SDS011;109;19.806;-70.704;2023-04-25T03:08:32;6.20;;;4.03;;
249;SDS011;109;19.806;-70.704;2023-04-25T03:11:01;7.17;;;3.97;;
249;SDS011;109;19.806;-70.704;2023-04-25T03:13:34;12.17;;;4.10;;
249;SDS011;109;19.806;-70.704;2023-04-25T03:16:00;7.17;;;3.93;;
249;SDS011;109;19.806;-70.704;2023-04-25T03:18:34;6.53;;;4.00;;
249;SDS011;109;19.806;-70.704;2023-04-25T03:21:00;7.30;;;4.37;;
249;SDS011;109;19.806;-70.704;2023-04-25T03:23:34;6.60;;;4.10;;
249;SDS011;109;19.806;-70.704;2023-04-25T03:26:00;8.10;;;3.50;;
249;SDS011;109;19.806;-70.704;2023-04-25T03:28:41;8.40;;;3.80;;
249;SDS011;109;19.806;-70.704;2023-04-25T03:31:15;8.17;;;4.80;;
249;SDS011;109;19.806;-70.704;2023-04-25T03:33:41;5.90;;;3.87;;
249;SDS011;109;19.806;-70.704;2023-04-25T03:36:16;11.63;;;5.27;;
249;SDS011;109;19.806;-70.704;2023-04-25T03:38:42;15.40;;;7.10;;
249;SDS011;109;19.806;-70.704;2023-04-25T03:41:17;17.17;;;7.73;;
249;SDS011;109;19.806;-70.704;2023-04-25T03:43:47;17.23;;;6.73;;
249;SDS011;109;19.806;-70.704;2023-04-25T03:46:20;14.30;;;7.03;;
249;SDS011;109;19.806;-70.704;2023-04-25T03:48:47;15.40;;;6.10;;
249;SDS011;109;19.806;-70.704;2023-04-25T03:51:26;12.83;;;5.77;;
249;SDS011;109;19.806;-70.704;2023-04-25T03:54:00;13.03;;;5.33;;
249;SDS011;109;19.806;-70.704;2023-04-25T03:56:30;16.73;;;9.67;;
249;SDS011;109;19.806;-70.704;2023-04-25T03:59:13;53.30;;;26.27;;
249;SDS011;109;19.806;-70.704;2023-04-25T04:01:54;37.10;;;14.93;;
249;SDS011;109;19.806;-70.704;2023-04-25T04:04:21;22.20;;;9.33;;
249;SDS011;109;19.806;-70.704;2023-04-25T04:06:55;12.70;;;4.90;;
249;SDS011;109;19.806;-70.704;2023-04-25T04:09:25;9.07;;;4.00;;
249;SDS011;109;19.806;-70.704;2023-04-25T04:12:03;7.03;;;3.60;;
249;SDS011;109;19.806;-70.704;2023-04-25T04:14:39;4.07;;;3.20;;
249;SDS011;109;19.806;-70.704;2023-04-25T04:17:06;6.40;;;2.90;;
249;SDS011;109;19.806;-70.704;2023-04-25T04:19:39;9.00;;;3.13;;
249;SDS011;109;19.806;-70.704;2023-04-25T04:22:11;4.73;;;2.83;;
249;SDS011;109;19.806;-70.704;2023-04-25T04:24:53;8.20;;;5.37;;
249;SDS011;109;19.806;-70.704;2023-04-25T04:27:49;12.73;;;3.30;;
249;SDS011;109;19.806;-70.704;2023-04-25T04:30:39;10.83;;;3.60;;
249;SDS011;109;19.806;-70.704;2023-04-25T04:33:13;7.63;;;3.03;;
249;SDS011;109;19.806;-70.704;2023-04-25T04:35:56;8.83;;;3.77;;
249;SDS011;109;19.806;-70.704;2023-04-25T04:38:29;11.90;;;3.97;;
249;SDS011;109;19.806;-70.704;2023-04-25T04:40:59;6.80;;;3.53;;
249;SDS011;109;19.806;-70.704;2023-04-25T04:43:53;6.13;;;3.30;;
249;SDS011;109;19.806;-70.704;2023-04-25T04:46:38;8.50;;;3.63;;
249;SDS011;109;19.806;-70.704;2023-04-25T04:49:35;5.50;;;3.40;;
249;SDS011;109;19.806;-70.704;2023-04-25T04:52:36;11.07;;;3.23;;
249;SDS011;109;19.806;-70.704;2023-04-25T04:55:48;6.70;;;3.50;;
249;SDS011;109;19.806;-70.704;2023-04-25T04:58:31;8.80;;;3.97;;
249;SDS011;109;19.806;-70.704;2023-04-25T05:01:43;10.63;;;4.83;;
249;SDS011;109;19.806;-70.704;2023-04-25T05:04:24;9.30;;;5.00;;
249;SDS011;109;19.806;-70.704;2023-04-25T05:07:17;8.43;;;4.87;;
249;SDS011;109;19.806;-70.704;2023-04-25T05:10:14;9.27;;;4.73;;
249;SDS011;109;19.806;-70.704;2023-04-25T05:12:56;12.37;;;5.13;;
249;SDS011;109;19.806;-70.704;2023-04-25T05:15:45;9.40;;;4.97;;
249;SDS011;109;19.806;-70.704;2023-04-25T05:18:46;10.50;;;4.73;;
249;SDS011;109;19.806;-70.704;2023-04-25T05:21:40;9.23;;;4.50;;
249;SDS011;109;19.806;-70.704;2023-04-25T05:24:40;15.80;;;5.73;;
249;SDS011;109;19.806;-70.704;2023-04-25T05:27:31;10.00;;;6.53;;
249;SDS011;109;19.806;-70.704;2023-04-25T05:30:14;12.50;;;7.40;;
249;SDS011;109;19.806;-70.704;2023-04-25T05:33:07;15.73;;;7.27;;
249;SDS011;109;19.806;-70.704;2023-04-25T05:35:40;14.83;;;7.70;;
249;SDS011;109;19.806;-70.704;2023-04-25T05:38:06;22.50;;;10.90;;
249;SDS011;109;19.806;-70.704;2023-04-25T05:40:59;14.23;;;7.23;;
249;SDS011;109;19.806;-70.704;2023-04-25T05:43:59;7.83;;;3.87;;
249;SDS011;109;19.806;-70.704;2023-04-25T05:46:41;5.57;;;3.40;;
249;SDS011;109;19.806;-70.704;2023-04-25T05:49:47;11.00;;;3.20;;
249;SDS011;109;19.806;-70.704;2023-04-25T05:52:47;5.43;;;3.10;;
249;SDS011;109;19.806;-70.704;2023-04-25T05:55:26;12.23;;;3.50;;
249;SDS011;109;19.806;-70.704;2023-04-25T05:58:02;5.57;;;2.70;;
249;SDS011;109;19.806;-70.704;2023-04-25T06:00:48;6.80;;;3.53;;
249;SDS011;109;19.806;-70.704;2023-04-25T06:03:22;7.27;;;3.13;;
249;SDS011;109;19.806;-70.704;2023-04-25T06:05:49;7.90;;;3.50;;
249;SDS011;109;19.806;-70.704;2023-04-25T06:08:23;7.00;;;3.23;;
249;SDS011;109;19.806;-70.704;2023-04-25T06:10:49;11.63;;;3.60;;
249;SDS011;109;19.806;-70.704;2023-04-25T06:13:23;5.77;;;3.63;;
249;SDS011;109;19.806;-70.704;2023-04-25T06:15:49;6.53;;;2.80;;
249;SDS011;109;19.806;-70.704;2023-04-25T06:18:23;6.80;;;3.03;;
249;SDS011;109;19.806;-70.704;2023-04-25T06:20:49;4.23;;;2.93;;
249;SDS011;109;19.806;-70.704;2023-04-25T06:23:23;6.00;;;2.80;;
249;SDS011;109;19.806;-70.704;2023-04-25T06:26:03;5.37;;;3.23;;
249;SDS011;109;19.806;-70.704;2023-04-25T06:28:39;6.70;;;3.10;;
249;SDS011;109;19.806;-70.704;2023-04-25T06:31:06;3.77;;;3.00;;
249;SDS011;109;19.806;-70.704;2023-04-25T06:33:42;9.63;;;3.03;;
249;SDS011;109;19.806;-70.704;2023-04-25T06:36:16;5.60;;;3.20;;
249;SDS011;109;19.806;-70.704;2023-04-25T06:38:44;6.70;;;2.80;;
249;SDS011;109;19.806;-70.704;2023-04-25T06:41:17;8.87;;;2.93;;
249;SDS011;109;19.806;-70.704;2023-04-25T06:43:43;6.00;;;2.87;;
249;SDS011;109;19.806;-70.704;2023-04-25T06:46:37;9.43;;;3.20;;
249;SDS011;109;19.806;-70.704;2023-04-25T06:49:12;5.03;;;2.80;;
249;SDS011;109;19.806;-70.704;2023-04-25T06:51:46;8.70;;;2.80;;
249;SDS011;109;19.806;-70.704;2023-04-25T06:54:19;7.47;;;3.07;;
249;SDS011;109;19.806;-70.704;2023-04-25T06:56:56;4.60;;;3.20;;
249;SDS011;109;19.806;-70.704;2023-04-25T06:59:31;5.30;;;2.70;;
249;SDS011;109;19.806;-70.704;2023-04-25T07:02:11;4.20;;;2.90;;
249;SDS011;109;19.806;-70.704;2023-04-25T07:04:38;9.23;;;3.37;;
249;SDS011;109;19.806;-70.704;2023-04-25T07:07:11;7.13;;;3.10;;
249;SDS011;109;19.806;-70.704;2023-04-25T07:09:44;6.57;;;3.03;;
249;SDS011;109;19.806;-70.704;2023-04-25T07:12:17;5.40;;;3.23;;
249;SDS011;109;19.806;-70.704;2023-04-25T07:14:43;5.30;;;2.70;;
249;SDS011;109;19.806;-70.704;2023-04-25T07:17:16;5.00;;;2.83;;
249;SDS011;109;19.806;-70.704;2023-04-25T07:19:42;5.73;;;3.17;;
249;SDS011;109;19.806;-70.704;2023-04-25T07:22:16;4.77;;;3.00;;
249;SDS011;109;19.806;-70.704;2023-04-25T07:24:43;4.87;;;2.97;;
249;SDS011;109;19.806;-70.704;2023-04-25T07:27:28;5.93;;;3.10;;
249;SDS011;109;19.806;-70.704;2023-04-25T07:30:10;2.90;;;2.43;;
249;SDS011;109;19.806;-70.704;2023-04-25T07:32:44;4.53;;;2.73;;
249;SDS011;109;19.806;-70.704;2023-04-25T07:35:10;8.80;;;3.80;;
249;SDS011;109;19.806;-70.704;2023-04-25T07:37:44;5.90;;;3.50;;
249;SDS011;109;19.806;-70.704;2023-04-25T07:40:14;6.60;;;3.30;;
249;SDS011;109;19.806;-70.704;2023-04-25T07:42:54;5.97;;;3.03;;
249;SDS011;109;19.806;-70.704;2023-04-25T07:45:50;6.53;;;3.47;;
249;SDS011;109;19.806;-70.704;2023-04-25T07:48:23;6.00;;;3.10;;
249;SDS011;109;19.806;-70.704;2023-04-25T07:50:51;11.67;;;3.30;;
249;SDS011;109;19.806;-70.704;2023-04-25T07:53:25;5.30;;;3.43;;
249;SDS011;109;19.806;-70.704;2023-04-25T07:55:57;9.87;;;3.57;;
249;SDS011;109;19.806;-70.704;2023-04-25T07:58:33;7.80;;;2.80;;
249;SDS011;109;19.806;-70.704;2023-04-25T08:01:21;5.10;;;3.17;;
249;SDS011;109;19.806;-70.704;2023-04-25T08:03:59;4.00;;;2.90;;
249;SDS011;109;19.806;-70.704;2023-04-25T08:06:53;5.30;;;2.80;;
249;SDS011;109;19.806;-70.704;2023-04-25T08:09:29;5.57;;;2.83;;
249;SDS011;109;19.806;-70.704;2023-04-25T08:12:13;9.00;;;3.30;;
249;SDS011;109;19.806;-70.704;2023-04-25T08:14:46;6.23;;;3.73;;
249;SDS011;109;19.806;-70.704;2023-04-25T08:17:13;8.47;;;3.77;;
249;SDS011;109;19.806;-70.704;2023-04-25T08:19:47;6.80;;;4.03;;
249;SDS011;109;19.806;-70.704;2023-04-25T08:22:23;7.10;;;3.60;;
249;SDS011;109;19.806;-70.704;2023-04-25T08:25:19;7.50;;;3.63;;
249;SDS011;109;19.806;-70.704;2023-04-25T08:27:52;5.70;;;4.17;;
249;SDS011;109;19.806;-70.704;2023-04-25T08:30:21;5.90;;;3.27;;
249;SDS011;109;19.806;-70.704;2023-04-25T08:32:54;8.10;;;4.03;;
249;SDS011;109;19.806;-70.704;2023-04-25T08:35:44;6.30;;;3.17;;
249;SDS011;109;19.806;-70.704;2023-04-25T08:38:17;11.97;;;4.50;;
249;SDS011;109;19.806;-70.704;2023-04-25T08:40:51;11.17;;;4.73;;
249;SDS011;109;19.806;-70.704;2023-04-25T08:43:27;7.77;;;4.00;;
249;SDS011;109;19.806;-70.704;2023-04-25T08:45:59;9.80;;;4.57;;
249;SDS011;109;19.806;-70.704;2023-04-25T08:48:50;11.67;;;4.10;;
249;SDS011;109;19.806;-70.704;2023-04-25T08:51:25;8.67;;;3.87;;
249;SDS011;109;19.806;-70.704;2023-04-25T08:53:53;8.20;;;3.60;;
249;SDS011;109;19.806;-70.704;2023-04-25T08:56:28;8.30;;;3.73;;
249;SDS011;109;19.806;-70.704;2023-04-25T08:59:14;7.70;;;3.93;;
249;SDS011;109;19.806;-70.704;2023-04-25T09:01:50;10.63;;;3.97;;
249;SDS011;109;19.806;-70.704;2023-04-25T09:04:20;8.53;;;3.43;;
249;SDS011;109;19.806;-70.704;2023-04-25T09:06:54;11.43;;;3.80;;
249;SDS011;109;19.806;-70.704;2023-04-25T09:09:21;12.30;;;3.60;;
249;SDS011;109;19.806;-70.704;2023-04-25T09:11:55;11.23;;;3.70;;
249;SDS011;109;19.806;-70.704;2023-04-25T09:14:23;12.00;;;3.67;;
249;SDS011;109;19.806;-70.704;2023-04-25T09:17:13;6.67;;;3.43;;
249;SDS011;109;19.806;-70.704;2023-04-25T09:19:52;7.00;;;3.90;;
249;SDS011;109;19.806;-70.704;2023-04-25T09:22:30;11.90;;;6.13;;
249;SDS011;109;19.806;-70.704;2023-04-25T09:25:04;12.40;;;6.80;;
249;SDS011;109;19.806;-70.704;2023-04-25T09:27:50;13.33;;;7.30;;
249;SDS011;109;19.806;-70.704;2023-04-25T09:30:29;17.60;;;9.20;;
249;SDS011;109;19.806;-70.704;2023-04-25T09:33:10;22.20;;;11.60;;
249;SDS011;109;19.806;-70.704;2023-04-25T09:35:47;19.43;;;11.03;;
249;SDS011;109;19.806;-70.704;2023-04-25T09:38:42;17.07;;;10.07;;
249;SDS011;109;19.806;-70.704;2023-04-25T09:41:31;18.10;;;9.00;;
249;SDS011;109;19.806;-70.704;2023-04-25T09:44:12;14.70;;;8.40;;
249;SDS011;109;19.806;-70.704;2023-04-25T09:46:41;11.50;;;6.87;;
249;SDS011;109;19.806;-70.704;2023-04-25T09:49:20;16.87;;;6.80;;
249;SDS011;109;19.806;-70.704;2023-04-25T09:52:08;9.67;;;5.63;;
249;SDS011;109;19.806;-70.704;2023-04-25T09:54:55;8.37;;;5.03;;
249;SDS011;109;19.806;-70.704;2023-04-25T09:57:32;13.63;;;5.10;;
249;SDS011;109;19.806;-70.704;2023-04-25T10:00:18;8.50;;;4.30;;
249;SDS011;109;19.806;-70.704;2023-04-25T10:02:52;10.57;;;4.87;;
249;SDS011;109;19.806;-70.704;2023-04-25T10:05:39;9.53;;;4.50;;
249;SDS011;109;19.806;-70.704;2023-04-25T10:08:16;12.43;;;5.03;;
249;SDS011;109;19.806;-70.704;2023-04-25T10:10:43;10.20;;;5.27;;
249;SDS011;109;19.806;-70.704;2023-04-25T10:13:18;31.80;;;5.70;;
249;SDS011;109;19.806;-70.704;2023-04-25T10:15:45;7.97;;;5.33;;
249;SDS011;109;19.806;-70.704;2023-04-25T10:18:19;10.83;;;5.87;;
249;SDS011;109;19.806;-70.704;2023-04-25T10:20:45;10.53;;;6.00;;
249;SDS011;109;19.806;-70.704;2023-04-25T10:23:19;13.80;;;5.70;;
249;SDS011;109;19.806;-70.704;2023-04-25T10:25:46;11.40;;;5.60;;
249;SDS011;109;19.806;-70.704;2023-04-25T10:34:19;9.17;;;4.43;;
249;SDS011;109;19.806;-70.704;2023-04-25T10:36:56;24.80;;;5.37;;
249;SDS011;109;19.806;-70.704;2023-04-25T10:39:23;10.50;;;4.93;;
249;SDS011;109;19.806;-70.704;2023-04-25T10:41:59;14.93;;;4.70;;
249;SDS011;109;19.806;-70.704;2023-04-25T10:44:28;13.63;;;4.90;;
249;SDS011;109;19.806;-70.704;2023-04-25T10:47:02;9.00;;;4.77;;
249;SDS011;109;19.806;-70.704;2023-04-25T10:49:31;7.23;;;4.43;;
249;SDS011;109;19.806;-70.704;2023-04-25T10:52:15;8.73;;;4.40;;
249;SDS011;109;19.806;-70.704;2023-04-25T10:54:57;11.50;;;4.40;;
249;SDS011;109;19.806;-70.704;2023-04-25T10:59:58;9.20;;;4.50;;
249;SDS011;109;19.806;-70.704;2023-04-25T11:02:37;12.13;;;5.40;;
249;SDS011;109;19.806;-70.704;2023-04-25T11:05:07;14.83;;;5.10;;
249;SDS011;109;19.806;-70.704;2023-04-25T11:08:09;11.93;;;4.90;;
249;SDS011;109;19.806;-70.704;2023-04-25T11:10:28;8.40;;;4.23;;
249;SDS011;109;19.806;-70.704;2023-04-25T11:12:58;7.90;;;4.20;;
249;SDS011;109;19.806;-70.704;2023-04-25T11:15:25;8.30;;;4.23;;
249;SDS011;109;19.806;-70.704;2023-04-25T11:17:53;6.43;;;4.20;;
249;SDS011;109;19.806;-70.704;2023-04-25T11:20:21;9.80;;;3.90;;
249;SDS011;109;19.806;-70.704;2023-04-25T11:22:51;11.70;;;4.53;;
249;SDS011;109;19.806;-70.704;2023-04-25T11:25:18;8.43;;;3.93;;
249;SDS011;109;19.806;-70.704;2023-04-25T11:27:49;7.10;;;3.93;;
249;SDS011;109;19.806;-70.704;2023-04-25T11:30:23;14.53;;;5.00;;
249;SDS011;109;19.806;-70.704;2023-04-25T11:32:51;12.30;;;5.90;;
249;SDS011;109;19.806;-70.704;2023-04-25T11:35:19;15.43;;;6.30;;
249;SDS011;109;19.806;-70.704;2023-04-25T11:37:48;8.63;;;5.83;;
249;SDS011;109;19.806;-70.704;2023-04-25T11:40:15;16.20;;;6.30;;
249;SDS011;109;19.806;-70.704;2023-04-25T11:42:46;12.80;;;5.33;;
249;SDS011;109;19.806;-70.704;2023-04-25T11:45:13;15.37;;;5.43;;
249;SDS011;109;19.806;-70.704;2023-04-25T11:47:40;16.67;;;5.67;;
249;SDS011;109;19.806;-70.704;2023-04-25T11:50:07;13.00;;;5.03;;
249;SDS011;109;19.806;-70.704;2023-04-25T11:55:07;11.80;;;4.40;;
249;SDS011;109;19.806;-70.704;2023-04-25T11:57:42;15.60;;;7.37;;
249;SDS011;109;19.806;-70.704;2023-04-25T12:00:11;37.93;;;19.47;;
249;SDS011;109;19.806;-70.704;2023-04-25T12:02:57;46.00;;;27.00;;
249;SDS011;109;19.806;-70.704;2023-04-25T12:05:28;54.43;;;26.87;;
249;SDS011;109;19.806;-70.704;2023-04-25T12:07:56;39.37;;;24.07;;
249;SDS011;109;19.806;-70.704;2023-04-25T12:10:24;44.67;;;25.73;;
249;SDS011;109;19.806;-70.704;2023-04-25T12:12:51;39.47;;;22.43;;
249;SDS011;109;19.806;-70.704;2023-04-25T12:15:18;46.57;;;22.77;;
249;SDS011;109;19.806;-70.704;2023-04-25T12:17:51;54.57;;;21.80;;
249;SDS011;109;19.806;-70.704;2023-04-25T12:20:21;33.73;;;18.63;;
249;SDS011;109;19.806;-70.704;2023-04-25T12:22:50;33.30;;;16.20;;
249;SDS011;109;19.806;-70.704;2023-04-25T12:25:39;35.07;;;18.20;;
249;SDS011;109;19.806;-70.704;2023-04-25T12:28:21;38.87;;;20.67;;
249;SDS011;109;19.806;-70.704;2023-04-25T12:30:57;35.37;;;20.70;;
249;SDS011;109;19.806;-70.704;2023-04-25T12:33:31;32.90;;;16.30;;
249;SDS011;109;19.806;-70.704;2023-04-25T12:36:03;11.10;;;6.40;;
249;SDS011;109;19.806;-70.704;2023-04-25T12:38:40;5.80;;;3.73;;
249;SDS011;109;19.806;-70.704;2023-04-25T12:41:08;11.00;;;4.10;;
249;SDS011;109;19.806;-70.704;2023-04-25T12:43:34;16.93;;;3.90;;
249;SDS011;109;19.806;-70.704;2023-04-25T12:46:01;8.60;;;4.17;;
249;SDS011;109;19.806;-70.704;2023-04-25T12:48:27;16.00;;;5.60;;
249;SDS011;109;19.806;-70.704;2023-04-25T12:50:54;6.87;;;4.90;;
249;SDS011;109;19.806;-70.704;2023-04-25T12:53:21;7.70;;;4.73;;
249;SDS011;109;19.806;-70.704;2023-04-25T12:55:49;9.33;;;5.60;;
249;SDS011;109;19.806;-70.704;2023-04-25T12:58:19;8.63;;;6.13;;
249;SDS011;109;19.806;-70.704;2023-04-25T13:00:46;10.83;;;5.47;;
249;SDS011;109;19.806;-70.704;2023-04-25T13:03:13;12.80;;;5.97;;
249;SDS011;109;19.806;-70.704;2023-04-25T13:05:40;13.60;;;6.77;;
249;SDS011;109;19.806;-70.704;2023-04-25T13:08:06;10.40;;;6.80;;
249;SDS011;109;19.806;-70.704;2023-04-25T13:10:33;15.80;;;7.17;;
249;SDS011;109;19.806;-70.704;2023-04-25T13:13:01;28.77;;;6.27;;
249;SDS011;109;19.806;-70.704;2023-04-25T13:15:28;15.23;;;6.10;;
249;SDS011;109;19.806;-70.704;2023-04-25T13:17:54;21.80;;;6.13;;
249;SDS011;109;19.806;-70.704;2023-04-25T13:20:21;24.03;;;6.50;;
249;SDS011;109;19.806;-70.704;2023-04-25T13:22:48;34.67;;;5.77;;
249;SDS011;109;19.806;-70.704;2023-04-25T13:25:14;22.27;;;5.57;;
249;SDS011;109;19.806;-70.704;2023-04-25T13:27:41;12.87;;;5.20;;
249;SDS011;109;19.806;-70.704;2023-04-25T13:30:09;9.77;;;4.40;;
249;SDS011;109;19.806;-70.704;2023-04-25T13:32:36;19.10;;;5.27;;
249;SDS011;109;19.806;-70.704;2023-04-25T13:35:04;16.57;;;4.70;;
249;SDS011;109;19.806;-70.704;2023-04-25T13:37:31;17.00;;;4.70;;
249;SDS011;109;19.806;-70.704;2023-04-25T13:40:02;24.63;;;6.20;;
249;SDS011;109;19.806;-70.704;2023-04-25T13:42:30;16.43;;;5.30;;
249;SDS011;109;19.806;-70.704;2023-04-25T13:44:57;20.43;;;5.60;;
249;SDS011;109;19.806;-70.704;2023-04-25T13:47:24;26.83;;;6.40;;
249;SDS011;109;19.806;-70.704;2023-04-25T13:49:53;14.87;;;4.50;;
249;SDS011;109;19.806;-70.704;2023-04-25T13:52:20;27.83;;;4.80;;
249;SDS011;109;19.806;-70.704;2023-04-25T13:54:46;17.70;;;4.90;;
249;SDS011;109;19.806;-70.704;2023-04-25T13:57:13;25.10;;;4.93;;
249;SDS011;109;19.806;-70.704;2023-04-25T13:59:39;42.57;;;7.00;;
249;SDS011;109;19.806;-70.704;2023-04-25T14:02:08;16.40;;;4.67;;
249;SDS011;109;19.806;-70.704;2023-04-25T14:04:35;27.50;;;5.07;;
249;SDS011;109;19.806;-70.704;2023-04-25T14:07:02;23.07;;;5.57;;
249;SDS011;109;19.806;-70.704;2023-04-25T14:09:29;20.87;;;6.57;;
249;SDS011;109;19.806;-70.704;2023-04-25T14:11:55;34.30;;;6.57;;
249;SDS011;109;19.806;-70.704;2023-04-25T14:14:22;34.60;;;7.23;;
249;SDS011;109;19.806;-70.704;2023-04-25T14:16:49;25.23;;;5.30;;
249;SDS011;109;19.806;-70.704;2023-04-25T14:19:17;26.80;;;6.10;;
249;SDS011;109;19.806;-70.704;2023-04-25T14:21:44;23.20;;;6.57;;
249;SDS011;109;19.806;-70.704;2023-04-25T14:24:12;20.20;;;4.90;;
249;SDS011;109;19.806;-70.704;2023-04-25T14:26:39;27.53;;;7.60;;
249;SDS011;109;19.806;-70.704;2023-04-25T14:29:06;20.00;;;6.03;;
249;SDS011;109;19.806;-70.704;2023-04-25T14:31:34;22.57;;;5.93;;
249;SDS011;109;19.806;-70.704;2023-04-25T14:34:01;23.17;;;5.47;;
249;SDS011;109;19.806;-70.704;2023-04-25T14:36:28;20.53;;;5.17;;
249;SDS011;109;19.806;-70.704;2023-04-25T14:38:56;28.17;;;6.60;;
249;SDS011;109;19.806;-70.704;2023-04-25T14:41:24;18.73;;;4.57;;
249;SDS011;109;19.806;-70.704;2023-04-25T14:43:52;27.70;;;6.03;;
249;SDS011;109;19.806;-70.704;2023-04-25T14:46:19;43.93;;;5.53;;
249;SDS011;109;19.806;-70.704;2023-04-25T14:48:47;24.37;;;5.60;;
249;SDS011;109;19.806;-70.704;2023-04-25T14:51:14;15.87;;;4.60;;
249;SDS011;109;19.806;-70.704;2023-04-25T14:53:40;27.70;;;6.30;;
249;SDS011;109;19.806;-70.704;2023-04-25T14:56:07;29.53;;;5.37;;
249;SDS011;109;19.806;-70.704;2023-04-25T14:58:34;11.67;;;4.50;;
249;SDS011;109;19.806;-70.704;2023-04-25T15:01:00;28.73;;;6.00;;
249;SDS011;109;19.806;-70.704;2023-04-25T15:03:27;31.17;;;7.00;;
249;SDS011;109;19.806;-70.704;2023-04-25T15:05:56;39.83;;;6.30;;
249;SDS011;109;19.806;-70.704;2023-04-25T15:08:23;20.33;;;4.87;;
249;SDS011;109;19.806;-70.704;2023-04-25T15:10:49;20.77;;;4.80;;
249;SDS011;109;19.806;-70.704;2023-04-25T15:13:17;19.20;;;5.27;;
249;SDS011;109;19.806;-70.704;2023-04-25T15:15:44;23.80;;;5.30;;
249;SDS011;109;19.806;-70.704;2023-04-25T15:18:17;26.63;;;5.27;;
249;SDS011;109;19.806;-70.704;2023-04-25T15:20:48;40.30;;;6.10;;
249;SDS011;109;19.806;-70.704;2023-04-25T15:23:15;36.13;;;6.70;;
249;SDS011;109;19.806;-70.704;2023-04-25T15:25:43;27.60;;;5.20;;
249;SDS011;109;19.806;-70.704;2023-04-25T15:28:10;12.00;;;4.33;;
249;SDS011;109;19.806;-70.704;2023-04-25T15:30:37;18.47;;;5.37;;
249;SDS011;109;19.806;-70.704;2023-04-25T15:33:03;22.03;;;5.17;;
249;SDS011;109;19.806;-70.704;2023-04-25T15:35:30;33.07;;;5.27;;
249;SDS011;109;19.806;-70.704;2023-04-25T15:37:56;25.67;;;5.80;;
249;SDS011;109;19.806;-70.704;2023-04-25T15:40:23;34.67;;;7.27;;
249;SDS011;109;19.806;-70.704;2023-04-25T15:42:50;25.73;;;4.33;;
249;SDS011;109;19.806;-70.704;2023-04-25T15:45:18;28.80;;;5.50;;
249;SDS011;109;19.806;-70.704;2023-04-25T15:47:46;20.80;;;5.90;;
249;SDS011;109;19.806;-70.704;2023-04-25T15:50:12;18.73;;;4.90;;
249;SDS011;109;19.806;-70.704;2023-04-25T15:52:42;23.83;;;4.70;;
249;SDS011;109;19.806;-70.704;2023-04-25T15:55:08;19.07;;;4.30;;
249;SDS011;109;19.806;-70.704;2023-04-25T15:57:36;30.00;;;7.03;;